createdAt,value
2022-10-07T00:04:27.110Z,1.60
2022-10-07T00:09:31.856Z,1.10
2022-10-07T00:14:35.363Z,1.40
2022-10-07T00:19:37.867Z,1.73
2022-10-07T00:24:41.750Z,1.20
2022-10-07T00:29:44.450Z,1.30
2022-10-07T00:34:47.070Z,1.38
2022-10-07T00:39:51.388Z,1.65
2022-10-07T00:44:53.878Z,2.22
2022-10-07T00:50:02.227Z,1.50
2022-10-07T00:55:11.195Z,1.33
2022-10-07T01:00:14.430Z,1.40
2022-10-07T01:05:17.034Z,1.90
2022-10-07T01:10:22.169Z,1.75
2022-10-07T01:15:33.695Z,1.85
2022-10-07T01:20:40.450Z,1.77
2022-10-07T01:25:58.670Z,1.70
2022-10-07T01:31:06.592Z,1.90
2022-10-07T01:36:14.051Z,1.90
2022-10-07T01:46:23.770Z,1.77
2022-10-07T01:51:30.138Z,2.10
2022-10-07T01:56:54.874Z,1.55
2022-10-07T02:02:04.701Z,2.13
2022-10-07T02:07:18.746Z,2.00
2022-10-07T02:12:25.162Z,1.85
2022-10-07T02:17:34.627Z,1.73
2022-10-07T02:22:39.711Z,2.00
2022-10-07T02:27:45.057Z,2.10
2022-10-07T02:32:54.305Z,2.08
2022-10-07T02:38:00.314Z,2.25
2022-10-07T02:43:07.188Z,2.45
2022-10-07T02:48:18.450Z,2.13
2022-10-07T02:53:22.821Z,2.15
2022-10-07T02:58:26.876Z,2.28
2022-10-07T03:03:30.855Z,1.92
2022-10-07T03:08:33.372Z,2.15
2022-10-07T03:13:35.838Z,2.30
2022-10-07T03:18:39.686Z,2.20
2022-10-07T03:23:42.165Z,2.35
2022-10-07T03:28:45.224Z,2.30
2022-10-07T03:33:49.975Z,2.80
2022-10-07T03:38:53.165Z,2.50
2022-10-07T03:43:56.315Z,2.42
2022-10-07T03:49:00.150Z,2.40
2022-10-07T03:54:02.562Z,2.10
2022-10-07T03:59:05.263Z,2.80
2022-10-07T04:04:09.138Z,2.40
2022-10-07T04:09:13.381Z,2.40
2022-10-07T04:14:15.761Z,3.08
2022-10-07T04:19:19.804Z,2.33
2022-10-07T04:24:22.268Z,2.38
2022-10-07T04:29:25.727Z,2.47
2022-10-07T04:34:29.578Z,1.83
2022-10-07T04:39:55.996Z,2.20
2022-10-07T04:44:54.818Z,2.33
2022-10-07T04:49:58.740Z,2.28
2022-10-07T04:55:01.305Z,2.33
2022-10-07T05:00:04.816Z,2.03
2022-10-07T05:05:10.758Z,2.42
2022-10-07T05:10:13.884Z,2.10
2022-10-07T05:15:16.379Z,2.53
2022-10-07T05:20:20.245Z,2.25
2022-10-07T05:25:23.053Z,2.55
2022-10-07T05:30:25.542Z,2.40
2022-10-07T05:35:29.781Z,2.42
2022-10-07T05:40:32.426Z,2.35
2022-10-07T05:45:35.066Z,2.50
2022-10-07T05:50:39.133Z,2.38
2022-10-07T05:55:41.860Z,2.58
2022-10-07T06:00:51.407Z,2.75
2022-10-07T06:05:56.527Z,2.47
2022-10-07T06:11:02.296Z,2.80
2022-10-07T06:16:06.632Z,2.38
2022-10-07T06:21:11.222Z,2.60
2022-10-07T06:26:13.733Z,2.88
2022-10-07T06:31:18.229Z,2.65
2022-10-07T06:36:22.978Z,2.92
2022-10-07T06:41:25.501Z,2.50
2022-10-07T06:46:28.330Z,2.03
2022-10-07T06:51:33.048Z,2.13
2022-10-07T06:56:35.614Z,2.25
2022-10-07T07:01:37.957Z,1.98
2022-10-07T07:06:41.848Z,2.97
2022-10-07T07:11:44.212Z,1.88
2022-10-07T07:16:46.494Z,2.42
2022-10-07T07:21:51.406Z,2.25
2022-10-07T07:26:53.926Z,1.83
2022-10-07T07:31:56.356Z,1.92
2022-10-07T07:37:03.391Z,2.60
2022-10-07T07:47:09.559Z,2.03
2022-10-07T07:52:13.805Z,2.38
2022-10-07T07:57:19.270Z,2.50
2022-10-07T08:02:21.694Z,2.45
2022-10-07T08:07:25.487Z,2.15
2022-10-07T08:12:28.094Z,2.55
2022-10-07T08:17:30.465Z,2.50
2022-10-07T08:22:34.502Z,2.00
2022-10-07T08:27:36.972Z,2.50
2022-10-07T08:32:39.393Z,2.30
2022-10-07T08:37:43.486Z,2.00
2022-10-07T08:42:47.963Z,2.47
2022-10-07T08:48:02.116Z,2.40
2022-10-07T08:53:12.625Z,2.40
2022-10-07T08:58:39.356Z,2.05
2022-10-07T09:03:48.200Z,2.03
2022-10-07T09:08:59.181Z,2.25
2022-10-07T09:14:20.223Z,2.20
2022-10-07T09:19:29.242Z,2.60
2022-10-07T09:24:35.187Z,1.98
2022-10-07T09:29:39.234Z,2.03
2022-10-07T09:34:41.889Z,2.03
2022-10-07T09:39:48.880Z,2.17
2022-10-07T09:44:52.769Z,2.38
2022-10-07T09:49:56.453Z,2.22
2022-10-07T09:55:28.203Z,1.90
2022-10-07T10:00:31.399Z,1.98
2022-10-07T10:05:35.697Z,1.85
2022-10-07T10:10:40.362Z,2.15
2022-10-07T10:15:47.513Z,2.03
2022-10-07T10:20:50.589Z,2.03
2022-10-07T10:38:36.213Z,2.53
2022-10-07T10:43:59.586Z,1.53
2022-10-07T10:55:41.647Z,1.77
2022-10-07T11:00:59.416Z,1.95
2022-10-07T11:06:07.265Z,2.45
2022-10-07T11:11:17.222Z,1.65
2022-10-07T11:16:25.225Z,1.90
2022-10-07T11:21:39.373Z,1.70
2022-10-07T11:26:47.369Z,1.83
2022-10-07T11:31:58.728Z,2.00
2022-10-07T11:37:09.252Z,1.70
2022-10-07T11:42:20.058Z,1.70
2022-10-07T11:47:28.291Z,1.60
2022-10-07T11:52:37.084Z,1.95
2022-10-07T11:57:49.319Z,1.70
2022-10-07T12:03:00.401Z,1.70
2022-10-07T12:08:23.221Z,1.80
2022-10-07T12:13:39.487Z,1.13
2022-10-07T12:19:02.593Z,1.63
2022-10-07T12:24:16.537Z,1.63
2022-10-07T12:29:50.787Z,1.27
2022-10-07T12:34:55.726Z,1.38
2022-10-07T12:39:59.578Z,1.63
2022-10-07T12:45:05.520Z,1.38
2022-10-07T12:50:13.065Z,1.60
2022-10-07T12:55:18.927Z,1.35
2022-10-07T13:00:24.294Z,1.80
2022-10-07T13:06:15.139Z,2.00
2022-10-07T13:11:54.062Z,2.45
2022-10-07T13:17:04.660Z,1.55
2022-10-07T13:22:12.981Z,1.60
2022-10-07T13:27:18.825Z,1.52
2022-10-07T13:32:25.825Z,1.52
2022-10-07T13:37:31.421Z,1.30
2022-10-07T13:42:34.440Z,1.98
2022-10-07T13:47:38.344Z,1.52
2022-10-07T13:52:45.663Z,1.10
2022-10-07T13:57:48.555Z,1.50
2022-10-07T14:02:53.150Z,2.03
2022-10-07T14:07:57.519Z,2.92
2022-10-07T14:18:36.298Z,1.55
2022-10-07T14:23:39.216Z,1.95
2022-10-07T14:28:46.639Z,1.50
2022-10-07T14:33:57.534Z,1.95
2022-10-07T14:38:59.959Z,2.28
2022-10-07T14:44:03.449Z,1.10
2022-10-07T14:49:09.609Z,1.60
2022-10-07T14:54:12.582Z,1.77
2022-10-07T14:59:16.994Z,1.40
2022-10-07T15:04:37.771Z,1.75
2022-10-07T15:09:40.348Z,1.75
2022-10-07T15:14:43.217Z,1.35
2022-10-07T15:19:47.277Z,1.25
2022-10-07T15:24:49.716Z,1.55
2022-10-07T15:29:52.106Z,1.38
2022-10-07T15:34:56.251Z,1.48
2022-10-07T15:39:58.786Z,1.38
2022-10-07T15:45:01.242Z,1.27
2022-10-07T15:50:06.382Z,1.67
2022-10-07T15:55:09.374Z,1.50
2022-10-07T16:00:13.575Z,1.25
2022-10-07T16:05:17.964Z,1.58
2022-10-07T16:10:34.811Z,1.55
2022-10-07T16:15:37.950Z,1.40
2022-10-07T16:20:43.671Z,1.60
2022-10-07T16:26:02.968Z,1.80
2022-10-07T16:31:05.955Z,1.35
2022-10-07T16:36:14.003Z,1.60
2022-10-07T16:41:17.689Z,1.73
2022-10-07T16:46:21.673Z,1.42
2022-10-07T16:51:26.982Z,1.50
2022-10-07T16:56:32.495Z,1.27
2022-10-07T17:01:35.396Z,1.58
2022-10-07T17:06:39.300Z,1.42
2022-10-07T17:11:41.980Z,2.17
2022-10-07T17:16:46.435Z,1.80
2022-10-07T17:21:52.103Z,1.60
2022-10-07T17:26:55.315Z,1.30
2022-10-07T17:31:58.133Z,1.70
2022-10-07T17:37:03.922Z,1.27
2022-10-07T17:42:06.825Z,1.58
2022-10-07T17:47:09.283Z,1.50
2022-10-07T17:52:27.376Z,1.52
2022-10-07T17:57:30.207Z,1.50
2022-10-07T18:02:33.087Z,1.38
2022-10-07T18:07:37.064Z,1.50
2022-10-07T18:12:39.365Z,1.60
2022-10-07T18:17:41.877Z,1.48
2022-10-07T18:22:45.795Z,1.40
2022-10-07T18:27:49.673Z,1.55
2022-10-07T18:32:52.921Z,1.70
2022-10-07T18:37:56.862Z,1.45
2022-10-07T18:43:00.993Z,1.83
2022-10-07T18:48:07.162Z,1.83
2022-10-07T18:53:12.944Z,1.73
2022-10-07T18:58:19.712Z,1.58
2022-10-07T19:03:22.863Z,1.77
2022-10-07T19:08:27.311Z,1.45
2022-10-07T19:13:46.142Z,1.40
2022-10-07T19:18:51.632Z,1.65
2022-10-07T19:23:57.480Z,1.40
2022-10-07T19:29:33.593Z,1.75
2022-10-07T19:34:43.221Z,1.83
2022-10-07T19:47:11.969Z,1.83
2022-10-07T19:52:34.930Z,1.52
2022-10-07T19:57:37.457Z,1.73
2022-10-07T20:02:41.746Z,1.95
2022-10-07T20:07:46.644Z,1.70
2022-10-07T20:12:51.338Z,1.90
2022-10-07T20:23:22.563Z,1.50
2022-10-07T20:28:25.880Z,1.50
2022-10-07T20:33:30.134Z,1.45
2022-10-07T20:38:33.082Z,2.00
2022-10-07T20:43:35.381Z,1.75
2022-10-07T20:48:44.840Z,1.73
2022-10-07T20:53:56.370Z,1.80
2022-10-07T20:59:00.587Z,1.88
2022-10-07T21:04:04.540Z,1.67
2022-10-07T21:09:08.028Z,1.80
2022-10-07T21:14:13.206Z,1.75
2022-10-07T21:19:18.255Z,1.63
2022-10-07T21:24:21.751Z,1.92
2022-10-07T21:29:27.337Z,1.77
2022-10-07T21:34:31.515Z,1.67
2022-10-07T21:39:34.773Z,1.85
2022-10-07T21:44:37.962Z,2.10
2022-10-07T21:49:41.978Z,1.42
2022-10-07T21:54:44.374Z,2.22
2022-10-07T21:59:47.002Z,1.95
2022-10-07T22:04:51.065Z,1.70
2022-10-07T22:09:53.919Z,1.77
2022-10-07T22:14:56.445Z,1.60
2022-10-07T22:20:01.402Z,1.75
2022-10-07T22:25:04.490Z,2.22
2022-10-07T22:30:08.676Z,1.73
2022-10-07T22:35:12.849Z,1.85
2022-10-07T22:40:15.505Z,2.00
2022-10-07T22:45:18.608Z,2.38
2022-10-07T22:50:22.780Z,1.80
2022-10-07T22:55:25.272Z,1.70
2022-10-07T23:00:27.588Z,2.13
2022-10-07T23:05:35.445Z,1.83
2022-10-07T23:10:38.199Z,2.00
2022-10-07T23:15:40.500Z,2.38
2022-10-07T23:20:44.504Z,1.67
2022-10-07T23:25:46.947Z,1.73
2022-10-07T23:30:49.496Z,1.98
2022-10-07T23:35:57.612Z,1.95
2022-10-07T23:41:00.100Z,2.05
2022-10-07T23:46:05.670Z,2.03
2022-10-07T23:51:12.116Z,1.67
2022-10-07T23:56:15.517Z,2.15
